Time;durP1;ratioP1;P1;durP2;ratioP2;P2;SDS_P1;SDS_P2;PMS_P1;PMS_P2;Temp;Humidity;BMP_temperature;BMP_pressure;BME280_temperature;BME280_humidity;BME280_pressure;Samples;Min_cycle;Max_cycle;Signal;HPM_P1;HPM_P2
2022/04/09 00:02:00;;;;;;;;;;;;;;;15.21;64.67;98160.22;4394538;32;33758;-83
2022/04/09 00:04:28;;;;;;;;;;;;;;;15.03;65.07;98152.06;4406618;32;33581;-85
2022/04/09 00:06:58;;;;;;;;;;;;;;;15.39;63.88;98141.63;4413830;32;35252;-84
2022/04/09 00:09:25;;;;;;;;;;;;;;;15.34;64.24;98136.09;4427918;32;34045;-83
2022/04/09 00:11:53;;;;;;;;;;;;;;;15.73;63.13;98116.25;4413431;32;34072;-86
2022/04/09 00:14:21;;;;;;;;;;;;;;;15.09;65.49;98127.09;4427611;32;34824;-84
2022/04/09 00:16:48;;;;;;;;;;;;;;;15.05;65.93;98130.44;4413846;32;35070;-82
2022/04/09 00:19:16;;;;;;;;;;;;;;;15.17;65.37;98118.00;4414709;32;33571;-83
2022/04/09 00:21:46;;;;;;;;;;;;;;;15.34;64.45;98113.81;4398207;32;32796;-84
2022/04/09 00:24:14;;;;;;;;;;;;;;;15.22;64.96;98110.97;4417300;32;33938;-84
2022/04/09 00:26:42;;;;;;;;;;;;;;;15.43;64.17;98097.28;4426363;32;34365;-82
2022/04/09 00:29:09;;;;;;;;;;;;;;;15.37;64.06;98100.81;4403136;32;33372;-82
2022/04/09 00:31:37;;;;;;;;;;;;;;;15.26;64.77;98101.47;4416622;32;34092;-82
2022/04/09 00:34:05;;;;;;;;;;;;;;;15.08;65.58;98105.88;4429760;32;34189;-85
2022/04/09 00:36:32;;;;;;;;;;;;;;;14.77;66.57;98087.06;4430247;32;35014;-84
2022/04/09 00:39:00;;;;;;;;;;;;;;;14.67;66.98;98090.19;4412063;32;34479;-83
2022/04/09 00:41:29;;;;;;;;;;;;;;;14.81;66.74;98089.13;4390250;32;31562;-86
2022/04/09 00:43:56;;;;;;;;;;;;;;;14.69;67.02;98085.47;4412540;32;34371;-84
2022/04/09 00:46:24;;;;;;;;;;;;;;;14.84;66.49;98093.22;4415793;32;33486;-85
2022/04/09 00:48:51;;;;;;;;;;;;;;;14.81;66.63;98091.78;4423573;32;35110;-83
2022/04/09 00:51:19;;;;;;;;;;;;;;;14.99;66.06;98096.44;4415903;32;34202;-84
2022/04/09 00:53:47;;;;;;;;;;;;;;;15.05;65.59;98101.78;4413593;32;33991;-84
2022/04/09 00:56:19;;;;;;;;;;;;;;;14.88;66.23;98127.41;4415912;32;36580;-84
2022/04/09 00:58:50;;;;;;;;;;;;;;;15.00;65.79;98127.53;4402306;32;34688;-83
2022/04/09 01:01:18;;;;;;;;;;;;;;;14.76;66.74;98129.06;4425370;32;32577;-85
2022/04/09 01:03:46;;;;;;;;;;;;;;;14.95;66.16;98138.09;4415855;32;34652;-82
2022/04/09 01:06:14;;;;;;;;;;;;;;;14.88;66.13;98145.31;4400686;32;34099;-84
2022/04/09 01:08:42;;;;;;;;;;;;;;;14.81;66.26;98150.69;4419152;32;34844;-83
2022/04/09 01:11:13;;;;;;;;;;;;;;;14.73;66.38;98116.13;4413374;32;34161;-82
2022/04/09 01:13:44;;;;;;;;;;;;;;;14.57;66.73;98094.34;4413234;32;33291;-81
2022/04/09 01:16:13;;;;;;;;;;;;;;;13.95;69.65;98094.00;4417253;32;36611;-82
2022/04/09 01:18:41;;;;;;;;;;;;;;;13.61;70.76;98088.84;4413465;32;34348;-82
2022/04/09 01:21:09;;;;;;;;;;;;;;;13.24;73.09;98104.59;4410929;32;33383;-83
2022/04/09 01:23:37;;;;;;;;;;;;;;;13.55;71.81;98081.66;4413621;32;34749;-83
2022/04/09 01:26:06;;;;;;;;;;;;;;;13.45;71.69;98089.25;4419682;32;34608;-82
2022/04/09 01:28:33;;;;;;;;;;;;;;;13.44;71.76;98108.97;4414119;32;34087;-81
2022/04/09 01:31:01;;;;;;;;;;;;;;;13.25;72.08;98122.28;4415410;32;33547;-81
2022/04/09 01:33:28;;;;;;;;;;;;;;;13.40;71.80;98125.63;4412963;32;34828;-82
2022/04/09 01:35:56;;;;;;;;;;;;;;;13.50;71.59;98144.75;4412506;32;34995;-83
2022/04/09 01:38:23;;;;;;;;;;;;;;;13.35;72.14;98147.59;4429533;32;34234;-82
2022/04/09 01:40:51;;;;;;;;;;;;;;;13.59;71.55;98138.19;4414193;32;33369;-81
2022/04/09 01:43:18;;;;;;;;;;;;;;;13.43;71.93;98138.56;4401064;32;32349;-82
2022/04/09 01:45:46;;;;;;;;;;;;;;;13.55;71.62;98136.94;4423913;32;35708;-85
2022/04/09 01:48:14;;;;;;;;;;;;;;;13.36;71.93;98138.56;4427545;32;34095;-83
2022/04/09 01:50:42;;;;;;;;;;;;;;;13.08;72.01;98143.19;4427080;32;33955;-82
2022/04/09 01:53:10;;;;;;;;;;;;;;;13.50;71.42;98145.56;4412971;32;33212;-83
2022/04/09 01:55:37;;;;;;;;;;;;;;;13.56;71.22;98126.06;4424821;32;35823;-83
2022/04/09 01:58:05;;;;;;;;;;;;;;;13.23;72.64;98127.00;4412900;32;33651;-82
2022/04/09 02:00:34;;;;;;;;;;;;;;;13.76;70.72;98134.91;4417188;32;33681;-84
2022/04/09 02:03:01;;;;;;;;;;;;;;;13.45;72.01;98126.66;4413320;32;33576;-83
2022/04/09 02:05:29;;;;;;;;;;;;;;;12.84;74.35;98116.16;4392878;32;33612;-85
2022/04/09 02:07:57;;;;;;;;;;;;;;;13.11;73.62;98121.41;4424663;32;34145;-82
2022/04/09 02:10:27;;;;;;;;;;;;;;;13.12;73.79;98109.72;4428629;32;33979;-85
2022/04/09 02:12:57;;;;;;;;;;;;;;;13.13;73.75;98111.34;4416086;32;33684;-83
2022/04/09 02:15:25;;;;;;;;;;;;;;;12.78;74.67;98119.59;4414333;32;35919;-84
2022/04/09 02:17:53;;;;;;;;;;;;;;;12.66;75.32;98116.66;4426959;32;34498;-83
2022/04/09 02:20:21;;;;;;;;;;;;;;;12.77;75.77;98116.09;4413623;32;33821;-83
2022/04/09 02:22:48;;;;;;;;;;;;;;;12.77;75.81;98110.75;4426694;32;34082;-82
2022/04/09 02:25:16;;;;;;;;;;;;;;;12.81;76.29;98098.69;4423713;32;34288;-85
2022/04/09 02:27:44;;;;;;;;;;;;;;;12.96;75.95;98104.72;4400297;32;35108;-83
2022/04/09 02:30:13;;;;;;;;;;;;;;;12.87;76.21;98095.22;4413388;32;34222;-83
2022/04/09 02:32:59;;;;;;;;;;;;;;;12.42;78.64;98119.00;4414486;32;33169;-83
2022/04/09 02:35:28;;;;;;;;;;;;;;;12.65;78.16;98112.34;4393742;32;34462;-83
2022/04/09 02:37:57;;;;;;;;;;;;;;;12.74;78.10;98119.16;4415333;32;35348;-84
2022/04/09 02:40:25;;;;;;;;;;;;;;;12.70;78.50;98117.94;4412911;32;34117;-83
2022/04/09 02:42:53;;;;;;;;;;;;;;;12.67;78.76;98133.50;4412916;32;33455;-85
2022/04/09 02:45:21;;;;;;;;;;;;;;;12.68;79.22;98137.81;4412781;32;35296;-83
2022/04/09 02:47:49;;;;;;;;;;;;;;;12.70;78.79;98144.62;4423731;32;34860;-83
2022/04/09 02:50:16;;;;;;;;;;;;;;;12.45;79.99;98143.44;4413826;32;31494;-85
2022/04/09 02:52:45;;;;;;;;;;;;;;;12.57;79.57;98154.38;4425453;32;33711;-83
2022/04/09 02:55:12;;;;;;;;;;;;;;;12.48;79.96;98150.22;4414047;32;35799;-82
2022/04/09 02:57:40;;;;;;;;;;;;;;;12.79;78.84;98143.44;4413928;32;33253;-82
2022/04/09 03:00:11;;;;;;;;;;;;;;;13.10;77.14;98133.13;4413768;32;34103;-82
2022/04/09 03:02:40;;;;;;;;;;;;;;;13.00;77.93;98140.69;4411735;32;33904;-83
2022/04/09 03:05:09;;;;;;;;;;;;;;;13.01;77.50;98147.66;4411508;32;34633;-84
2022/04/09 03:07:37;;;;;;;;;;;;;;;13.43;75.71;98149.25;4411933;32;35423;-83
2022/04/09 03:10:05;;;;;;;;;;;;;;;13.00;76.92;98140.69;4411856;32;32818;-84
2022/04/09 03:12:33;;;;;;;;;;;;;;;13.01;76.60;98147.66;4412305;32;33421;-83
2022/04/09 03:15:00;;;;;;;;;;;;;;;13.29;75.30;98134.19;4412223;32;35670;-82
2022/04/09 03:17:28;;;;;;;;;;;;;;;12.86;74.55;98132.78;4422506;32;32941;-82
2022/04/09 03:19:56;;;;;;;;;;;;;;;12.96;74.69;98144.75;4414106;32;33176;-83
2022/04/09 03:22:23;;;;;;;;;;;;;;;12.86;74.85;98165.63;4414396;32;33758;-85
2022/04/09 03:24:51;;;;;;;;;;;;;;;13.04;74.60;98171.28;4412163;32;34724;-84
2022/04/09 03:27:18;;;;;;;;;;;;;;;12.91;75.03;98163.19;4411645;32;34703;-83
2022/04/09 03:29:46;;;;;;;;;;;;;;;13.19;74.26;98153.28;4412536;32;32979;-83
2022/04/09 03:32:14;;;;;;;;;;;;;;;13.13;74.26;98151.41;4398265;32;34601;-82
2022/04/09 03:34:42;;;;;;;;;;;;;;;13.29;73.37;98145.72;4414756;32;35031;-83
2022/04/09 03:37:11;;;;;;;;;;;;;;;13.40;72.95;98139.78;4427591;32;34210;-82
2022/04/09 03:39:39;;;;;;;;;;;;;;;13.34;72.71;98134.44;4416175;32;33668;-83
2022/04/09 03:42:07;;;;;;;;;;;;;;;13.20;72.84;98130.88;4427115;32;34617;-83
2022/04/09 03:44:51;;;;;;;;;;;;;;;13.34;71.72;98147.78;4413413;32;34500;-83
2022/04/09 03:47:19;;;;;;;;;;;;;;;13.01;73.08;98157.50;4413869;32;34672;-83
2022/04/09 03:49:46;;;;;;;;;;;;;;;13.38;71.65;98151.69;4400608;32;32793;-84
2022/04/09 03:52:14;;;;;;;;;;;;;;;13.29;71.72;98145.72;4419507;32;34627;-84
2022/04/09 03:54:42;;;;;;;;;;;;;;;13.23;71.42;98137.69;4422285;32;35291;-82
2022/04/09 03:57:10;;;;;;;;;;;;;;;13.50;70.41;98134.06;4423546;32;33943;-82
2022/04/09 03:59:38;;;;;;;;;;;;;;;13.48;70.53;98141.47;4414570;32;33547;-82
2022/04/09 04:02:06;;;;;;;;;;;;;;;13.47;70.51;98135.28;4414239;32;35222;-83
2022/04/09 04:04:35;;;;;;;;;;;;;;;13.65;69.75;98135.53;4413632;32;33757;-82
2022/04/09 04:07:02;;;;;;;;;;;;;;;13.77;69.25;98138.41;4416801;32;35568;-82
2022/04/09 04:09:30;;;;;;;;;;;;;;;13.74;69.20;98128.13;4426973;32;33529;-82
2022/04/09 04:11:58;;;;;;;;;;;;;;;13.76;68.99;98116.19;4412877;32;34726;-83
2022/04/09 04:14:28;;;;;;;;;;;;;;;13.76;68.93;98113.53;4414664;32;34489;-83
2022/04/09 04:16:56;;;;;;;;;;;;;;;13.78;68.86;98113.34;4416034;32;32594;-83
2022/04/09 04:19:24;;;;;;;;;;;;;;;13.78;68.40;98114.12;4414599;32;33633;-82
2022/04/09 04:21:52;;;;;;;;;;;;;;;13.98;67.72;98108.81;4416648;32;34243;-82
2022/04/09 04:24:23;;;;;;;;;;;;;;;13.76;67.90;98107.38;4407895;32;33971;-83
2022/04/09 04:26:51;;;;;;;;;;;;;;;13.77;67.92;98103.69;4418973;32;34654;-83
2022/04/09 04:29:19;;;;;;;;;;;;;;;13.59;68.79;98098.09;4415564;32;33689;-84
2022/04/09 04:31:47;;;;;;;;;;;;;;;13.16;70.22;98094.09;4413199;32;32656;-85
2022/04/09 04:34:16;;;;;;;;;;;;;;;12.90;71.85;98092.16;4414000;32;35204;-83
2022/04/09 04:36:44;;;;;;;;;;;;;;;12.30;74.58;98097.38;4423224;32;34758;-85
2022/04/09 04:39:12;;;;;;;;;;;;;;;12.51;74.11;98104.47;4424181;32;33553;-83
2022/04/09 04:41:41;;;;;;;;;;;;;;;12.59;74.02;98101.66;4413786;32;34492;-82
2022/04/09 04:44:10;;;;;;;;;;;;;;;12.44;74.76;98088.44;4418492;32;34345;-82
2022/04/09 04:46:40;;;;;;;;;;;;;;;12.07;76.32;98075.50;4424862;32;34772;-83
2022/04/09 04:49:10;;;;;;;;;;;;;;;12.03;77.23;98074.22;4412074;32;31625;-83
2022/04/09 04:51:38;;;;;;;;;;;;;;;12.11;76.48;98060.75;4415706;32;33917;-83
2022/04/09 04:54:05;;;;;;;;;;;;;;;11.79;78.03;98049.87;4426293;32;34578;-83
2022/04/09 04:59:59;;;;;;;;;;;;;;;11.45;79.36;98021.31;4419569;32;34198;-83
2022/04/09 05:02:31;;;;;;;;;;;;;;;10.92;82.67;97994.41;4422037;32;34667;-82
2022/04/09 05:05:01;;;;;;;;;;;;;;;10.93;83.76;98006.69;4422023;32;34454;-81
2022/04/09 05:07:41;;;;;;;;;;;;;;;10.87;84.75;98014.63;4423303;32;34334;-83
2022/04/09 05:10:12;;;;;;;;;;;;;;;11.02;83.96;98020.72;4427898;32;33861;-85
2022/04/09 05:12:40;;;;;;;;;;;;;;;11.03;84.08;98001.88;4413468;32;32491;-82
2022/04/09 05:15:09;;;;;;;;;;;;;;;11.01;83.55;97997.75;4408553;32;33875;-83
2022/04/09 05:17:37;;;;;;;;;;;;;;;10.80;84.65;98006.56;4417861;32;35605;-87
2022/04/09 05:20:05;;;;;;;;;;;;;;;11.12;83.00;97998.06;4393476;32;33962;-89
2022/04/09 05:22:33;;;;;;;;;;;;;;;10.91;84.55;97990.09;4422149;32;33499;-82
2022/04/09 05:25:01;;;;;;;;;;;;;;;10.91;84.02;97994.59;4426677;32;34691;-89
2022/04/09 05:27:28;;;;;;;;;;;;;;;10.98;84.36;97999.00;4422039;32;35199;-89
2022/04/09 05:29:56;;;;;;;;;;;;;;;10.88;85.56;98006.47;4425195;32;34517;-82
2022/04/09 05:32:24;;;;;;;;;;;;;;;11.13;83.92;98021.00;4422982;32;34787;-84
2022/04/09 05:34:51;;;;;;;;;;;;;;;11.27;83.52;98013.97;4410417;32;34886;-80
2022/04/09 05:37:20;;;;;;;;;;;;;;;11.09;84.53;98021.59;4402593;32;34617;-85
2022/04/09 05:39:49;;;;;;;;;;;;;;;11.31;82.32;98008.06;4424223;32;33865;-85
2022/04/09 05:42:16;;;;;;;;;;;;;;;11.11;82.82;98012.41;4425220;32;33864;-84
2022/04/09 05:44:43;;;;;;;;;;;;;;;11.13;82.89;98021.00;4422019;32;34927;-80
2022/04/09 05:47:11;;;;;;;;;;;;;;;10.81;84.87;98031.31;4412222;32;34055;-83
2022/04/09 05:49:39;;;;;;;;;;;;;;;11.20;83.88;98037.03;4410316;32;33422;-84
2022/04/09 05:52:06;;;;;;;;;;;;;;;10.97;84.93;98042.56;4422288;32;33463;-82
2022/04/09 05:54:34;;;;;;;;;;;;;;;11.17;83.58;98046.25;4408072;32;34108;-82
2022/04/09 05:57:02;;;;;;;;;;;;;;;11.14;83.74;98049.28;4401736;32;32060;-83
2022/04/09 05:59:31;;;;;;;;;;;;;;;11.18;82.91;98061.22;4414822;32;33299;-87
2022/04/09 06:01:59;;;;;;;;;;;;;;;11.20;83.09;98045.88;4419717;32;33890;-81
2022/04/09 06:04:27;;;;;;;;;;;;;;;11.45;81.72;98047.94;4419291;32;35092;-83
2022/04/09 06:06:55;;;;;;;;;;;;;;;11.46;80.80;98043.44;4420794;32;34936;-83
2022/04/09 06:09:23;;;;;;;;;;;;;;;11.35;81.69;98050.09;4422843;32;33211;-83
2022/04/09 06:11:51;;;;;;;;;;;;;;;11.28;82.92;98072.34;4421073;32;33989;-85
2022/04/09 06:14:19;;;;;;;;;;;;;;;11.22;82.24;98056.31;4409783;32;35783;-85
2022/04/09 06:16:48;;;;;;;;;;;;;;;11.38;81.78;98078.19;4421592;32;34274;-83
2022/04/09 06:19:16;;;;;;;;;;;;;;;11.70;80.53;98075.84;4422966;32;33849;-87
2022/04/09 06:21:44;;;;;;;;;;;;;;;11.64;79.35;98052.63;4406773;32;33823;-85
2022/04/09 06:24:12;;;;;;;;;;;;;;;11.57;80.30;98057.09;4424490;32;35344;-84
2022/04/09 06:26:40;;;;;;;;;;;;;;;11.26;82.54;98060.25;4424085;32;33526;-85
2022/04/09 06:29:07;;;;;;;;;;;;;;;11.32;82.54;98064.81;4420945;32;33089;-80
2022/04/09 06:31:35;;;;;;;;;;;;;;;11.72;79.28;98055.16;4422592;32;35038;-84
2022/04/09 06:34:05;;;;;;;;;;;;;;;11.60;80.52;98053.22;4424964;32;34347;-85
2022/04/09 06:36:35;;;;;;;;;;;;;;;11.61;80.44;98049.53;4425468;32;34908;-85
2022/04/09 06:39:03;;;;;;;;;;;;;;;11.76;79.59;98053.78;4421148;32;33454;-83
2022/04/09 06:41:33;;;;;;;;;;;;;;;11.62;79.92;98051.19;4423440;32;33425;-82
2022/04/09 06:44:02;;;;;;;;;;;;;;;11.69;79.23;98047.56;4426222;32;35060;-83
2022/04/09 06:46:29;;;;;;;;;;;;;;;11.45;80.37;98074.56;4408695;32;35218;-87
2022/04/09 06:48:57;;;;;;;;;;;;;;;11.81;79.38;98080.63;4407065;32;32879;-89
2022/04/09 06:51:26;;;;;;;;;;;;;;;12.18;77.98;98074.97;4418054;32;32808;-87
2022/04/09 06:53:55;;;;;;;;;;;;;;;12.62;75.83;98072.75;4420389;32;34623;-86
2022/04/09 06:56:23;;;;;;;;;;;;;;;12.64;75.27;98061.84;4423158;32;34073;-82
2022/04/09 06:58:51;;;;;;;;;;;;;;;12.54;75.41;98056.91;4417566;32;34041;-88
2022/04/09 07:01:19;;;;;;;;;;;;;;;12.20;77.60;98072.09;4411247;32;34401;-85
2022/04/09 07:03:47;;;;;;;;;;;;;;;12.49;77.16;98093.19;4404425;32;35439;-85
2022/04/09 07:06:19;;;;;;;;;;;;;;;12.70;76.33;98085.91;4414128;32;34405;-86
2022/04/09 07:08:47;;;;;;;;;;;;;;;12.43;76.50;98069.97;4401747;32;33433;-85
2022/04/09 07:11:15;;;;;;;;;;;;;;;12.06;78.52;98068.53;4384848;32;31780;-82
2022/04/09 07:13:42;;;;;;;;;;;;;;;12.35;78.44;98083.47;4398262;32;33892;-87
2022/04/09 07:16:10;;;;;;;;;;;;;;;12.35;78.93;98128.78;4401835;32;34656;-89
2022/04/09 07:18:37;;;;;;;;;;;;;;;12.22;79.45;98296.69;4417137;32;33744;-86
2022/04/09 07:21:05;;;;;;;;;;;;;;;11.78;78.30;98290.69;4415896;32;34117;-88
2022/04/09 07:23:33;;;;;;;;;;;;;;;11.61;76.83;98278.59;4412965;32;34513;-84
2022/04/09 07:26:00;;;;;;;;;;;;;;;11.36;75.84;98279.91;4411619;32;33356;-85
2022/04/09 07:28:28;;;;;;;;;;;;;;;11.41;76.16;98301.47;4412921;32;34368;-87
2022/04/09 07:30:55;;;;;;;;;;;;;;;10.98;75.05;98296.16;4392521;32;33598;-87
2022/04/09 07:33:22;;;;;;;;;;;;;;;10.88;75.76;98288.47;4389780;32;36209;-86
2022/04/09 07:35:55;;;;;;;;;;;;;;;11.05;74.22;98275.78;4425400;32;34483;-82
2022/04/09 07:38:23;;;;;;;;;;;;;;;11.33;74.17;98281.09;4419879;32;32594;-87
2022/04/09 07:40:51;;;;;;;;;;;;;;;11.03;74.16;98267.97;4425448;32;34245;-87
2022/04/09 07:43:18;;;;;;;;;;;;;;;11.24;74.16;98264.59;4404356;32;35078;-89
2022/04/09 07:45:45;;;;;;;;;;;;;;;11.36;74.38;98262.06;4409870;32;34653;-88
2022/04/09 07:48:13;;;;;;;;;;;;;;;11.22;74.63;98261.28;4407787;32;31497;-85
2022/04/09 07:53:46;;;;;;;;;;;;;;;11.26;74.40;98263.41;4383450;32;33324;-89
2022/04/09 07:56:14;;;;;;;;;;;;;;;11.47;75.34;98253.59;4395727;32;35355;-86
2022/04/09 07:58:44;;;;;;;;;;;;;;;11.45;75.59;98247.66;4396433;32;34845;-90
2022/04/09 08:01:11;;;;;;;;;;;;;;;11.83;74.21;98248.31;4396558;32;34027;-90
2022/04/09 08:03:39;;;;;;;;;;;;;;;12.08;73.54;98239.75;4395758;32;34500;-88
2022/04/09 08:06:07;;;;;;;;;;;;;;;11.71;74.34;98250.66;4382950;32;34331;-88
2022/04/09 08:08:35;;;;;;;;;;;;;;;11.81;74.37;98251.16;4381026;32;32754;-89
2022/04/09 08:11:02;;;;;;;;;;;;;;;11.94;74.24;98247.81;4392220;32;33648;-88
2022/04/09 08:13:30;;;;;;;;;;;;;;;12.42;72.88;98249.69;4382938;32;35112;-87
2022/04/09 08:15:57;;;;;;;;;;;;;;;12.51;72.84;98252.03;4383845;32;35087;-89
2022/04/09 08:18:25;;;;;;;;;;;;;;;12.47;72.79;98239.28;4395621;32;33645;-85
2022/04/09 08:21:03;;;;;;;;;;;;;;;12.42;73.58;98249.69;4383621;32;34524;-89
2022/04/09 08:23:31;;;;;;;;;;;;;;;12.73;73.28;98261.63;4382152;32;34739;-89
2022/04/09 08:26:01;;;;;;;;;;;;;;;12.58;73.07;98257.41;4394008;32;34305;-88
2022/04/09 08:28:31;;;;;;;;;;;;;;;12.19;74.61;98265.88;4383130;32;33833;-88
2022/04/09 08:30:59;;;;;;;;;;;;;;;12.34;73.76;98258.66;4382896;32;33823;-88
2022/04/09 08:33:27;;;;;;;;;;;;;;;12.45;73.24;98258.13;4380977;32;35688;-87
2022/04/09 08:35:54;;;;;;;;;;;;;;;12.27;74.33;98259.62;4382169;32;34305;-86
2022/04/09 08:38:24;;;;;;;;;;;;;;;12.56;72.50;98260.25;4382219;32;32850;-90
2022/04/09 08:40:51;;;;;;;;;;;;;;;12.25;72.44;98262.47;4393865;32;33785;-86
2022/04/09 08:43:19;;;;;;;;;;;;;;;12.47;72.67;98265.94;4394631;32;34888;-87
2022/04/09 08:45:46;;;;;;;;;;;;;;;12.50;72.46;98260.22;4394423;32;34618;-89
2022/04/09 08:48:14;;;;;;;;;;;;;;;12.41;74.44;98264.03;4381564;32;32480;-88
2022/04/09 08:50:43;;;;;;;;;;;;;;;12.77;72.88;98264.72;4394803;32;33437;-87
2022/04/09 08:53:11;;;;;;;;;;;;;;;12.71;73.17;98284.16;4394697;32;35148;-87
2022/04/09 08:55:40;;;;;;;;;;;;;;;12.77;71.80;98281.53;4394756;32;35152;-85
2022/04/09 08:58:08;;;;;;;;;;;;;;;12.78;72.60;98291.22;4382953;32;32972;-87
2022/04/09 09:00:36;;;;;;;;;;;;;;;12.84;72.17;98295.78;4384155;32;34292;-88
2022/04/09 09:03:04;;;;;;;;;;;;;;;12.68;72.73;98295.25;4383375;32;34307;-88
2022/04/09 09:05:38;;;;;;;;;;;;;;;12.86;72.49;98295.59;4394963;32;34483;-86
2022/04/09 09:08:07;;;;;;;;;;;;;;;12.86;72.67;98312.41;4382840;32;32188;-86
2022/04/09 09:10:35;;;;;;;;;;;;;;;12.84;72.25;98327.78;4382923;32;34032;-85
2022/04/09 09:13:06;;;;;;;;;;;;;;;12.26;71.76;98328.09;4384002;32;36542;-87
2022/04/09 09:15:45;;;;;;;;;;;;;;;12.31;71.71;98324.87;4395489;32;33870;-86
2022/04/09 09:18:20;;;;;;;;;;;;;;;12.30;73.34;98320.56;4395948;32;34570;-86
2022/04/09 09:20:51;;;;;;;;;;;;;;;12.21;71.46;98333.16;4396729;32;34083;-92
2022/04/09 09:23:22;;;;;;;;;;;;;;;12.02;70.01;98332.97;4384534;32;36120;-86
2022/04/09 09:25:50;;;;;;;;;;;;;;;12.08;69.02;98340.19;4394199;32;35065;-87
2022/04/09 09:28:22;;;;;;;;;;;;;;;11.95;68.16;98332.06;4370514;32;32494;-91
2022/04/09 09:30:50;;;;;;;;;;;;;;;11.96;69.01;98347.87;4393115;32;34271;-88
2022/04/09 09:33:18;;;;;;;;;;;;;;;11.73;69.30;98357.03;4380038;32;34247;-86
2022/04/09 09:36:05;;;;;;;;;;;;;;;11.85;70.43;98384.84;4379902;32;35292;-91
2022/04/09 09:38:35;;;;;;;;;;;;;;;11.73;69.96;98392.47;4381718;32;35149;-84
2022/04/09 09:41:03;;;;;;;;;;;;;;;11.51;69.51;98425.34;4379213;32;33904;-87
2022/04/09 09:43:31;;;;;;;;;;;;;;;11.47;71.43;98418.72;4392619;32;34929;-88
2022/04/09 09:45:59;;;;;;;;;;;;;;;11.30;71.82;98455.53;4390728;32;34811;-87
2022/04/09 09:48:30;;;;;;;;;;;;;;;11.23;68.02;98455.41;4378525;32;32430;-88
2022/04/09 09:51:04;;;;;;;;;;;;;;;10.83;68.48;98484.19;4380922;32;34602;-87
2022/04/09 09:53:32;;;;;;;;;;;;;;;10.59;66.29;98479.84;4388881;32;35389;-87
2022/04/09 09:56:00;;;;;;;;;;;;;;;10.45;67.56;98482.44;4379080;32;34279;-86
2022/04/09 09:58:29;;;;;;;;;;;;;;;10.53;68.28;98493.88;4382146;32;33606;-87
2022/04/09 10:01:16;;;;;;;;;;;;;;;10.44;68.05;98502.91;4372905;32;34119;-85
2022/04/09 10:03:46;;;;;;;;;;;;;;;10.24;66.98;98507.00;4386706;32;35679;-90
2022/04/09 10:06:21;;;;;;;;;;;;;;;10.50;68.38;98518.16;4385562;32;34288;-86
2022/04/09 10:08:50;;;;;;;;;;;;;;;10.18;67.01;98510.34;4375756;32;33015;-90
2022/04/09 10:11:27;;;;;;;;;;;;;;;10.40;68.02;98524.69;4383710;32;32896;-91
2022/04/09 10:13:56;;;;;;;;;;;;;;;10.40;66.76;98524.69;4379678;32;34754;-89
2022/04/09 10:16:42;;;;;;;;;;;;;;;10.51;67.28;98519.81;4386190;32;35812;-90
2022/04/09 10:19:41;;;;;;;;;;;;;;;10.57;67.12;98527.06;4381136;32;34754;-90
2022/04/09 10:22:11;;;;;;;;;;;;;;;10.64;66.96;98529.84;4385122;32;34419;-89
2022/04/09 10:24:39;;;;;;;;;;;;;;;10.36;65.76;98534.00;4378977;32;34742;-87
2022/04/09 10:27:08;;;;;;;;;;;;;;;10.31;67.31;98531.03;4378516;32;33841;-85
2022/04/09 10:29:48;;;;;;;;;;;;;;;10.16;66.36;98538.06;4390335;32;34379;-88
2022/04/09 10:32:34;;;;;;;;;;;;;;;10.18;66.75;98542.22;4392461;32;33753;-88
2022/04/09 10:35:02;;;;;;;;;;;;;;;9.95;67.86;98548.41;4390940;32;35082;-88
2022/04/09 10:37:29;;;;;;;;;;;;;;;10.38;64.86;98530.16;4379644;32;34705;-90
2022/04/09 10:39:57;;;;;;;;;;;;;;;10.34;64.59;98534.19;4378234;32;32010;-91
2022/04/09 10:42:43;;;;;;;;;;;;;;;10.11;63.59;98546.56;4390118;32;33670;-89
2022/04/09 10:45:10;;;;;;;;;;;;;;;10.37;63.43;98555.09;4381327;32;34924;-88
2022/04/09 10:47:57;;;;;;;;;;;;;;;10.32;62.14;98565.44;4381013;32;34938;-90
2022/04/09 10:50:24;;;;;;;;;;;;;;;10.39;63.33;98568.22;4381685;32;32832;-85
2022/04/09 10:52:52;;;;;;;;;;;;;;;10.16;61.96;98584.09;4379782;32;33734;-88
2022/04/09 10:55:22;;;;;;;;;;;;;;;10.02;61.86;98581.28;4377691;32;34111;-88
2022/04/09 10:57:52;;;;;;;;;;;;;;;10.15;61.08;98582.44;4391449;32;34520;-88
2022/04/09 11:00:22;;;;;;;;;;;;;;;9.73;63.04;98592.44;4389598;32;34879;-89
2022/04/09 11:03:12;;;;;;;;;;;;;;;9.95;61.35;98582.94;4378411;32;34113;-90
2022/04/09 11:05:41;;;;;;;;;;;;;;;9.92;62.01;98585.97;4390725;32;35489;-90
2022/04/09 11:08:19;;;;;;;;;;;;;;;9.94;60.71;98587.41;4377497;32;34215;-90
2022/04/09 11:10:47;;;;;;;;;;;;;;;9.77;59.93;98591.13;4390596;32;33636;-88
2022/04/09 11:13:18;;;;;;;;;;;;;;;10.15;61.03;98605.50;4378478;32;33958;-88
2022/04/09 11:15:53;;;;;;;;;;;;;;;10.11;59.80;98626.28;4390439;32;34917;-87
2022/04/09 11:18:24;;;;;;;;;;;;;;;9.97;60.60;98621.63;4378627;32;32773;-86
2022/04/09 11:20:53;;;;;;;;;;;;;;;10.01;60.64;98644.22;4377927;32;33204;-90
2022/04/09 11:23:21;;;;;;;;;;;;;;;10.25;60.39;98644.19;4380528;32;35355;-89
2022/04/09 11:25:48;;;;;;;;;;;;;;;10.35;60.02;98651.97;4378012;32;34607;-91
2022/04/09 11:28:20;;;;;;;;;;;;;;;10.27;58.84;98678.56;4379545;32;35213;-89
2022/04/09 11:30:53;;;;;;;;;;;;;;;10.45;58.70;98671.22;4391504;32;33128;-88
2022/04/09 11:33:21;;;;;;;;;;;;;;;10.39;59.33;98690.53;4390719;32;31876;-87
2022/04/09 11:35:48;;;;;;;;;;;;;;;10.08;58.39;98685.09;4380798;32;34898;-89
2022/04/09 11:38:16;;;;;;;;;;;;;;;10.12;56.93;98696.22;4378391;32;34584;-89
2022/04/09 11:40:49;;;;;;;;;;;;;;;10.51;56.46;98673.19;4380802;32;33652;-88
2022/04/09 11:43:17;;;;;;;;;;;;;;;10.35;58.08;98697.16;4379676;32;33467;-88
2022/04/09 11:45:44;;;;;;;;;;;;;;;10.54;55.81;98699.44;4390853;32;35311;-89
2022/04/09 11:48:19;;;;;;;;;;;;;;;10.69;56.20;98679.97;4381855;32;34321;-88
2022/04/09 11:50:48;;;;;;;;;;;;;;;10.60;56.70;98714.72;4381671;32;33174;-89
2022/04/09 11:53:16;;;;;;;;;;;;;;;10.40;56.22;98711.59;4388945;32;33869;-90
2022/04/09 11:55:44;;;;;;;;;;;;;;;10.58;56.14;98738.00;4395079;32;33821;-88
2022/04/09 11:58:14;;;;;;;;;;;;;;;10.72;55.99;98739.97;4395888;32;34464;-88
2022/04/09 12:00:44;;;;;;;;;;;;;;;10.48;54.99;98732.88;4397224;32;33194;-86
2022/04/09 12:03:12;;;;;;;;;;;;;;;10.60;56.15;98706.75;4395688;32;34560;-89
2022/04/09 12:05:47;;;;;;;;;;;;;;;10.17;56.37;98729.25;4396598;32;35357;-89
2022/04/09 12:08:18;;;;;;;;;;;;;;;10.71;52.92;98747.12;4393673;32;34170;-91
2022/04/09 12:10:51;;;;;;;;;;;;;;;10.20;55.34;98752.84;4398004;32;32873;-90
2022/04/09 12:13:26;;;;;;;;;;;;;;;10.31;54.75;98747.19;4396808;32;33924;-89
2022/04/09 12:15:53;;;;;;;;;;;;;;;10.17;54.73;98760.31;4383056;32;35555;-89
2022/04/09 12:18:28;;;;;;;;;;;;;;;10.03;54.98;98767.13;4398564;32;34505;-87
2022/04/09 12:20:55;;;;;;;;;;;;;;;10.39;55.11;98773.75;4396885;32;33735;-90
2022/04/09 12:23:30;;;;;;;;;;;;;;;10.27;54.32;98785.72;4397974;32;34993;-91
2022/04/09 12:25:59;;;;;;;;;;;;;;;10.19;55.42;98788.38;4397040;32;35968;-90
2022/04/09 12:28:30;;;;;;;;;;;;;;;10.18;54.45;98781.41;4396471;32;35740;-91
2022/04/09 12:31:00;;;;;;;;;;;;;;;10.22;53.68;98788.09;4396389;32;34921;-88
2022/04/09 12:33:28;;;;;;;;;;;;;;;9.93;55.52;98789.50;4396335;32;33928;-90
2022/04/09 12:36:05;;;;;;;;;;;;;;;9.88;54.56;98787.34;4397622;32;35702;-92
2022/04/09 12:38:36;;;;;;;;;;;;;;;9.95;55.05;98771.56;4398122;32;34308;-89
2022/04/09 12:41:07;;;;;;;;;;;;;;;9.92;53.32;98766.59;4395414;32;34398;-86
2022/04/09 12:43:36;;;;;;;;;;;;;;;9.99;53.96;98770.25;4396792;32;33842;-89
2022/04/09 12:46:14;;;;;;;;;;;;;;;10.06;54.06;98758.84;4382365;32;34200;-88
2022/04/09 12:48:45;;;;;;;;;;;;;;;10.07;52.96;98757.00;4396895;32;33955;-88
2022/04/09 12:51:14;;;;;;;;;;;;;;;10.01;54.06;98745.16;4397511;32;32594;-88
2022/04/09 12:53:43;;;;;;;;;;;;;;;10.11;54.19;98751.19;4395687;32;33590;-90
2022/04/09 12:56:11;;;;;;;;;;;;;;;10.21;54.21;98749.19;4384460;32;34284;-89
2022/04/09 12:58:38;;;;;;;;;;;;;;;10.31;54.28;98749.03;4394978;32;34554;-90
2022/04/09 13:01:07;;;;;;;;;;;;;;;10.24;54.55;98767.47;4396622;32;34094;-87
2022/04/09 13:03:35;;;;;;;;;;;;;;;10.17;53.26;98770.94;4396150;32;33568;-89
2022/04/09 13:06:02;;;;;;;;;;;;;;;10.09;53.62;98758.50;4396556;32;34215;-87